Airfield :







YOU CAN JOIN US ON...

 
LOGIN :

Register | Disclaimer

   EN    FR    IT 

 









Legend :    VFR   Marginal VFR   IFR   Intensive IFR   Very Intensive IFR
Visi :
Ceiling :
>= 8 km
>= 3000ft
5 to 8 km
1000 to 3000 ft
1500m to 5 km
500 to 1000 ft
800 to 1500m
200 to 500 ft
< 800m
< 200 ft
Symbols :   Thunderstorms  Fog  Heavy snow  Heavy precipitations  Wind > 20 kt






- Airport Elevation : 35 ft
- IATA code : YGR


CYGR - ëles-de-la-Madeleine

CURRENT METAR :
  • 292029Z 31018G24KT 6SM -SHSN DRSN OVC035 M11/M16 A2975 RMK CU8 SLP076

EXPIRED METARs :
  • 292014Z 32019G28KT 6SM -SHSN BLSN OVC030 M11/M16 A2974 RMK CU8 SLP074
  • 292000Z 32022G30KT 2 1/2SM -SHSN BLSN OVC025 M11/M15 A2974 RMK CU8 VIS VRB 1-4 SLP073
  • 291900Z 33024G33KT 2SM -SHSN BLSN OVC023 M10/M14 A2972 RMK SN2CU6 VIS VRB 1-3 SLP065
  • 291800Z 33025G33KT 3SM -SHSN BLSN OVC025 M09/M13 A2969 RMK CU8 SLP056

TAF TAF CYGR
Valid from the 29 at 20:00 until the 30 at 03:00 UTC


291938Z 2920/3003 33022G32KT 2SM -SHSN BLSN OVC020
TEMPO 2920/2922 6SM -SHSN OVC025
FM292200 33020G30KT P6SM -SHSN BKN030
TEMPO 2922/3003 1SM -SHSN BLSN OVC012
PROB40 2922/3002 1/4SM +SHSN BLSN RMK NXT FCST WILL BE ISSUED AT 301145Z



MET'MAP, your aeronautical weather chart ! - Copyright ORBIFLY December 2007 - Disclaimer

ORBIFLY MET'MAP TEAM :

Programming & Development : Alexandra Zaïnal
Concept & original design : Baudouin d'Aumeries
Assistance for programming : Marc-Olivier Méhu
Technical & hardware support : Manuel Goepfert

Contact : metmap@orbifly.com




SOURCES & CREDITS :

   NOAA